createdAt,value
2018-10-21T00:01:45.196Z,5.20
2018-10-21T00:04:14.761Z,5.18
2018-10-21T00:06:43.681Z,5.16
2018-10-21T00:09:14.029Z,5.15
2018-10-21T00:11:43.474Z,5.13
2018-10-21T00:14:12.328Z,5.13
2018-10-21T00:16:42.068Z,5.15
2018-10-21T00:19:12.573Z,5.13
2018-10-21T00:21:41.891Z,5.16
2018-10-21T00:24:11.980Z,5.18
2018-10-21T00:26:41.520Z,5.19
2018-10-21T00:29:11.162Z,5.18
2018-10-21T00:31:41.176Z,5.20
2018-10-21T00:34:11.312Z,5.20
2018-10-21T00:36:40.291Z,5.19
2018-10-21T00:39:12.014Z,5.15
2018-10-21T00:41:41.735Z,5.12
2018-10-21T00:44:11.353Z,5.11
2018-10-21T00:46:41.581Z,5.05
2018-10-21T00:49:11.516Z,5.06
2018-10-21T00:51:41.281Z,5.11
2018-10-21T00:54:16.647Z,5.10
2018-10-21T00:56:46.850Z,5.13
2018-10-21T00:59:17.330Z,5.13
2018-10-21T01:01:46.184Z,5.14
2018-10-21T01:04:15.578Z,5.16
2018-10-21T01:06:45.186Z,5.18
2018-10-21T01:09:14.362Z,5.16
2018-10-21T01:11:44.197Z,5.17
2018-10-21T01:14:12.941Z,5.19
2018-10-21T01:16:42.479Z,5.20
2018-10-21T01:19:12.179Z,5.19
2018-10-21T01:21:41.663Z,5.20
2018-10-21T01:24:11.266Z,5.19
2018-10-21T01:26:40.747Z,5.18
2018-10-21T01:29:10.836Z,5.17
2018-10-21T01:31:41.332Z,5.17
2018-10-21T01:34:10.707Z,5.18
2018-10-21T01:36:39.887Z,5.16
2018-10-21T01:39:10.829Z,5.19
2018-10-21T01:41:41.167Z,5.19
2018-10-21T01:44:10.135Z,5.17
2018-10-21T01:46:38.899Z,5.19
2018-10-21T01:49:08.163Z,5.19
2018-10-21T01:51:43.662Z,5.18
2018-10-21T01:54:12.546Z,5.21
2018-10-21T01:56:42.159Z,5.21
2018-10-21T01:59:12.870Z,5.21
2018-10-21T02:01:42.626Z,5.17
2018-10-21T02:04:12.805Z,5.20
2018-10-21T02:06:42.188Z,5.21
2018-10-21T02:09:11.679Z,5.21
2018-10-21T02:11:41.950Z,5.20
2018-10-21T02:14:11.445Z,5.22
2018-10-21T02:16:41.052Z,5.24
2018-10-21T02:19:10.112Z,5.19
2018-10-21T02:21:38.921Z,5.26
2018-10-21T02:24:07.811Z,5.27
2018-10-21T02:26:36.633Z,5.28
2018-10-21T02:29:06.179Z,5.24
2018-10-21T02:31:34.921Z,5.30
2018-10-21T02:34:04.839Z,5.32
2018-10-21T02:36:34.610Z,5.33
2018-10-21T02:39:04.469Z,5.31
2018-10-21T02:41:46.206Z,5.36
2018-10-21T02:44:21.242Z,5.36
2018-10-21T02:46:51.444Z,5.34
2018-10-21T02:49:21.499Z,5.36
2018-10-21T02:51:55.560Z,5.36
2018-10-21T02:54:25.585Z,5.34
2018-10-21T02:56:54.467Z,5.32
2018-10-21T02:59:24.612Z,5.33
2018-10-21T03:01:53.430Z,5.35
2018-10-21T03:04:23.253Z,5.35
2018-10-21T03:06:52.782Z,5.36
2018-10-21T03:09:21.662Z,5.37
2018-10-21T03:11:51.159Z,5.41
2018-10-21T03:14:19.986Z,5.42
2018-10-21T03:16:49.144Z,5.47
2018-10-21T03:19:17.943Z,5.49
2018-10-21T03:21:46.806Z,5.52
2018-10-21T03:24:15.724Z,5.54
2018-10-21T03:26:47.301Z,5.59
2018-10-21T03:29:17.058Z,5.62
2018-10-21T03:31:46.309Z,5.64
2018-10-21T03:34:15.644Z,5.61
2018-10-21T03:36:45.567Z,5.66
2018-10-21T03:39:14.324Z,5.60
2018-10-21T03:41:44.139Z,5.69
2018-10-21T03:44:12.912Z,5.68
2018-10-21T03:46:41.823Z,5.71
2018-10-21T03:49:11.952Z,5.74
2018-10-21T03:51:41.308Z,5.78
2018-10-21T03:54:10.256Z,5.81
2018-10-21T03:56:39.337Z,5.85
2018-10-21T03:59:08.876Z,5.86
2018-10-21T04:01:37.715Z,5.85
2018-10-21T04:04:07.236Z,5.88
2018-10-21T04:06:35.990Z,5.92
2018-10-21T04:09:06.235Z,5.92
2018-10-21T04:11:35.623Z,5.96
2018-10-21T04:14:04.426Z,5.97
2018-10-21T04:16:33.199Z,5.98
2018-10-21T04:19:03.062Z,5.91
2018-10-21T04:21:31.928Z,5.97
2018-10-21T04:24:00.882Z,5.98
2018-10-21T04:26:29.669Z,5.99
2018-10-21T04:28:59.195Z,5.99
2018-10-21T04:31:27.972Z,6.00
2018-10-21T04:33:57.566Z,6.00
2018-10-21T04:36:33.481Z,6.00
2018-10-21T04:40:14.727Z,5.95
2018-10-21T04:42:44.821Z,6.02
2018-10-21T04:45:15.914Z,6.03
2018-10-21T04:47:44.672Z,6.06
2018-10-21T04:50:14.222Z,6.11
2018-10-21T04:52:42.960Z,6.12
2018-10-21T05:00:49.578Z,6.25
2018-10-21T05:03:19.240Z,6.28
2018-10-21T05:05:48.888Z,6.30
2018-10-21T05:08:17.635Z,6.32
2018-10-21T05:10:46.475Z,6.34
2018-10-21T05:13:15.712Z,6.35
2018-10-21T05:15:46.161Z,6.35
2018-10-21T05:18:15.019Z,6.39
2018-10-21T05:20:43.801Z,6.42
2018-10-21T05:23:12.554Z,6.43
2018-10-21T05:25:42.506Z,6.46
2018-10-21T05:28:12.128Z,6.48
2018-10-21T05:30:44.133Z,6.53
2018-10-21T05:33:13.994Z,6.54
2018-10-21T05:35:44.136Z,6.57
2018-10-21T05:38:13.062Z,6.58
2018-10-21T05:40:42.405Z,6.62
2018-10-21T05:43:11.979Z,6.65
2018-10-21T05:45:40.983Z,6.68
2018-10-21T05:48:10.691Z,6.70
2018-10-21T05:50:41.180Z,6.71
2018-10-21T05:53:10.248Z,6.75
2018-10-21T05:55:39.335Z,6.79
2018-10-21T05:58:08.229Z,6.83
2018-10-21T06:00:37.655Z,6.89
2018-10-21T06:03:07.449Z,6.95
2018-10-21T06:05:38.730Z,7.02
2018-10-21T06:08:07.947Z,7.12
2018-10-21T06:10:36.705Z,7.24
2018-10-21T06:13:06.873Z,7.33
2018-10-21T06:15:35.644Z,7.46
2018-10-21T06:18:11.590Z,7.56
2018-10-21T06:20:43.395Z,7.64
2018-10-21T06:23:13.297Z,7.78
2018-10-21T06:25:42.877Z,7.86
2018-10-21T06:28:12.730Z,7.98
2018-10-21T06:30:42.242Z,8.08
2018-10-21T06:33:14.287Z,8.18
2018-10-21T06:35:43.931Z,8.28
2018-10-21T06:38:12.848Z,8.38
2018-10-21T06:40:42.266Z,8.43
2018-10-21T06:43:12.844Z,8.47
2018-10-21T06:45:42.807Z,8.50
2018-10-21T06:48:12.083Z,8.50
2018-10-21T06:50:42.523Z,8.53
2018-10-21T06:53:12.064Z,8.54
2018-10-21T06:55:41.737Z,8.56
2018-10-21T06:58:10.959Z,8.60
2018-10-21T07:00:41.624Z,8.63
2018-10-21T07:03:11.377Z,8.64
2018-10-21T07:06:16.241Z,8.70
2018-10-21T07:08:45.798Z,8.77
2018-10-21T07:11:14.733Z,8.89
2018-10-21T07:13:44.313Z,9.06
2018-10-21T07:16:13.404Z,9.19
2018-10-21T07:18:43.201Z,9.32
2018-10-21T07:21:12.308Z,9.45
2018-10-21T07:23:42.293Z,9.57
2018-10-21T07:26:12.381Z,9.71
2018-10-21T07:28:42.195Z,9.87
2018-10-21T07:31:11.799Z,10.03
2018-10-21T07:33:42.106Z,10.19
2018-10-21T07:36:12.404Z,10.26
2018-10-21T07:38:42.122Z,10.33
2018-10-21T07:41:11.622Z,10.39
2018-10-21T07:43:42.070Z,10.44
2018-10-21T07:46:16.154Z,10.44
2018-10-21T07:48:45.971Z,10.45
2018-10-21T07:51:15.422Z,10.41
2018-10-21T07:53:44.259Z,10.41
2018-10-21T07:56:13.040Z,10.44
2018-10-21T07:58:43.221Z,10.51
2018-10-21T08:01:12.593Z,10.58
2018-10-21T08:03:45.272Z,10.67
2018-10-21T08:06:27.351Z,10.84
2018-10-21T08:08:56.191Z,10.89
2018-10-21T08:11:25.615Z,10.96
2018-10-21T08:13:54.858Z,11.05
2018-10-21T08:16:23.679Z,11.09
2018-10-21T08:18:53.135Z,11.14
2018-10-21T08:21:22.040Z,11.21
2018-10-21T08:23:50.895Z,11.30
2018-10-21T08:26:20.542Z,11.37
2018-10-21T08:28:50.322Z,11.42
2018-10-21T08:31:19.127Z,11.46
2018-10-21T08:33:48.877Z,11.50
2018-10-21T08:36:18.189Z,11.58
2018-10-21T08:38:46.996Z,11.62
2018-10-21T08:41:15.770Z,11.71
2018-10-21T08:43:45.193Z,11.80
2018-10-21T08:46:14.595Z,11.88
2018-10-21T08:48:43.274Z,11.98
2018-10-21T08:51:12.862Z,12.10
2018-10-21T08:53:42.212Z,12.20
2018-10-21T08:56:11.277Z,12.26
2018-10-21T08:58:40.469Z,12.36
2018-10-21T09:01:10.509Z,12.44
2018-10-21T09:03:40.160Z,12.53
2018-10-21T09:06:10.303Z,12.60
2018-10-21T09:08:40.252Z,12.73
2018-10-21T09:11:10.129Z,12.79
2018-10-21T09:13:40.188Z,12.88
2018-10-21T09:16:09.277Z,12.91
2018-10-21T09:18:38.031Z,12.95
2018-10-21T09:21:06.914Z,12.96
2018-10-21T09:23:36.508Z,12.99
2018-10-21T09:26:05.380Z,13.04
2018-10-21T09:28:34.878Z,13.05
2018-10-21T09:31:03.705Z,13.08
2018-10-21T09:33:33.021Z,13.13
2018-10-21T09:36:02.375Z,13.17
2018-10-21T09:38:32.008Z,13.19
2018-10-21T09:41:00.910Z,13.20
2018-10-21T09:43:30.663Z,13.24
2018-10-21T09:46:01.013Z,13.34
2018-10-21T09:48:29.781Z,13.44
2018-10-21T09:50:58.617Z,13.46
2018-10-21T09:53:27.385Z,13.61
2018-10-21T09:55:56.511Z,13.66
2018-10-21T09:58:26.001Z,13.69
2018-10-21T10:01:00.617Z,13.69
2018-10-21T10:03:30.111Z,13.76
2018-10-21T10:05:58.923Z,13.83
2018-10-21T10:08:27.723Z,13.94
2018-10-21T10:10:56.518Z,14.01
2018-10-21T10:13:26.302Z,14.06
2018-10-21T10:15:55.250Z,14.12
2018-10-21T10:18:24.131Z,14.12
2018-10-21T10:20:53.705Z,14.16
2018-10-21T10:23:22.876Z,14.20
2018-10-21T10:25:51.629Z,14.23
2018-10-21T10:28:21.374Z,14.19
2018-10-21T10:30:50.651Z,14.19
2018-10-21T10:33:20.242Z,14.20
2018-10-21T10:35:49.815Z,14.19
2018-10-21T10:38:18.649Z,14.20
2018-10-21T10:40:47.460Z,14.21
2018-10-21T10:43:17.546Z,14.23
2018-10-21T10:45:46.319Z,14.26
2018-10-21T10:48:15.147Z,14.24
2018-10-21T10:50:44.816Z,14.29
2018-10-21T10:53:13.625Z,14.36
2018-10-21T10:55:46.199Z,14.38
2018-10-21T10:58:15.870Z,14.38
2018-10-21T11:00:45.423Z,14.44
2018-10-21T11:03:15.092Z,14.42
2018-10-21T11:05:43.893Z,14.44
2018-10-21T11:08:13.795Z,14.48
2018-10-21T11:10:42.706Z,14.52
2018-10-21T11:13:16.017Z,14.58
2018-10-21T11:15:44.892Z,14.64
2018-10-21T11:18:14.389Z,14.66
2018-10-21T11:20:43.193Z,14.67
2018-10-21T11:23:13.278Z,14.75
2018-10-21T11:25:42.272Z,14.78
2018-10-21T11:28:12.267Z,14.89
2018-10-21T11:30:42.069Z,14.94
2018-10-21T11:33:12.623Z,14.97
2018-10-21T11:35:43.097Z,14.98
2018-10-21T11:38:12.829Z,15.09
2018-10-21T11:40:42.198Z,15.15
2018-10-21T11:43:12.104Z,15.22
2018-10-21T11:45:42.055Z,15.21
2018-10-21T11:48:11.425Z,15.25
2018-10-21T11:50:41.310Z,15.31
2018-10-21T11:53:10.336Z,15.33
2018-10-21T11:55:40.544Z,15.45
2018-10-21T11:58:16.147Z,15.56
2018-10-21T12:00:46.943Z,15.62
2018-10-21T12:03:16.572Z,15.65
2018-10-21T12:05:45.359Z,15.61
2018-10-21T12:08:14.460Z,15.53
2018-10-21T12:10:43.659Z,15.55
2018-10-21T12:13:13.388Z,15.53
2018-10-21T12:15:45.451Z,15.54
2018-10-21T12:18:14.346Z,15.63
2018-10-21T12:20:43.233Z,15.74
2018-10-21T12:23:13.255Z,15.83
2018-10-21T12:25:43.168Z,15.91
2018-10-21T12:28:12.304Z,15.98
2018-10-21T12:30:44.738Z,15.96
2018-10-21T12:33:14.122Z,16.04
2018-10-21T12:35:43.649Z,16.08
2018-10-21T12:38:12.468Z,16.10
2018-10-21T12:40:42.911Z,16.10
2018-10-21T12:43:13.188Z,16.07
2018-10-21T12:45:43.049Z,16.02
2018-10-21T12:48:13.384Z,16.05
2018-10-21T12:50:42.378Z,16.05
2018-10-21T12:53:12.571Z,16.03
2018-10-21T12:55:47.643Z,16.06
2018-10-21T12:58:16.572Z,16.07
2018-10-21T13:00:46.171Z,16.04
2018-10-21T13:03:15.789Z,16.06
2018-10-21T13:06:47.408Z,16.03
2018-10-21T13:09:16.304Z,15.97
2018-10-21T13:11:45.976Z,15.90
2018-10-21T13:14:15.583Z,15.85
2018-10-21T13:16:44.582Z,15.87
2018-10-21T13:19:13.432Z,15.90
2018-10-21T13:21:42.916Z,15.91
2018-10-21T13:24:12.482Z,15.92
2018-10-21T13:26:43.244Z,15.93
2018-10-21T13:29:12.163Z,15.89
2018-10-21T13:31:42.878Z,15.89
2018-10-21T13:34:12.496Z,15.86
2018-10-21T13:36:42.003Z,15.84
2018-10-21T13:39:13.812Z,15.80
2018-10-21T13:41:44.787Z,15.76
2018-10-21T13:44:13.554Z,15.77
2018-10-21T13:46:43.169Z,15.76
2018-10-21T13:49:12.203Z,15.77
2018-10-21T13:51:41.747Z,15.78
2018-10-21T13:54:10.951Z,15.79
2018-10-21T13:56:40.188Z,15.78
2018-10-21T13:59:12.151Z,15.78
2018-10-21T14:01:42.315Z,15.83
2018-10-21T14:04:12.230Z,15.89
2018-10-21T14:06:41.518Z,15.97
2018-10-21T14:09:12.987Z,16.05
2018-10-21T14:11:44.103Z,16.06
2018-10-21T14:14:12.973Z,16.03
2018-10-21T14:16:42.821Z,16.04
2018-10-21T14:19:11.912Z,16.02
2018-10-21T14:21:42.591Z,16.00
2018-10-21T14:24:12.124Z,15.95
2018-10-21T14:26:41.824Z,15.89
2018-10-21T14:29:12.011Z,15.81
2018-10-21T14:31:42.415Z,15.78
2018-10-21T14:34:12.447Z,15.67
2018-10-21T14:36:42.217Z,15.62
2018-10-21T14:39:13.618Z,15.57
2018-10-21T14:41:43.428Z,15.48
2018-10-21T14:44:12.254Z,15.47
2018-10-21T14:46:41.750Z,15.45
2018-10-21T14:49:11.331Z,15.41
2018-10-21T14:51:41.386Z,15.37
2018-10-21T14:54:10.912Z,15.34
2018-10-21T14:56:39.894Z,15.36
2018-10-21T14:59:09.702Z,15.36
2018-10-21T15:01:38.730Z,15.30
2018-10-21T15:04:09.980Z,15.30
2018-10-21T15:06:39.652Z,15.26
2018-10-21T15:09:12.718Z,15.25
2018-10-21T15:11:42.985Z,15.23
2018-10-21T15:14:13.122Z,15.21
2018-10-21T15:16:41.994Z,15.17
2018-10-21T15:19:11.721Z,15.15
2018-10-21T15:24:16.501Z,15.14
2018-10-21T15:26:45.344Z,15.10
2018-10-21T15:29:14.181Z,15.10
2018-10-21T15:31:43.699Z,15.09
2018-10-21T15:34:13.013Z,15.07
2018-10-21T15:36:43.742Z,15.04
2018-10-21T15:39:13.784Z,14.96
2018-10-21T15:41:43.246Z,14.89
2018-10-21T15:44:13.096Z,14.84
2018-10-21T15:46:43.072Z,14.84
2018-10-21T15:49:12.761Z,14.81
2018-10-21T15:51:42.053Z,14.79
2018-10-21T15:54:11.620Z,14.79
2018-10-21T15:56:41.404Z,14.79
2018-10-21T15:59:12.350Z,14.77
2018-10-21T16:01:41.918Z,14.76
2018-10-21T16:04:12.216Z,14.76
2018-10-21T16:06:42.662Z,14.77
2018-10-21T16:09:13.186Z,14.80
2018-10-21T16:11:43.291Z,14.81
2018-10-21T16:14:12.339Z,14.83
2018-10-21T16:16:41.483Z,14.84
2018-10-21T16:19:11.263Z,14.82
2018-10-21T16:21:41.050Z,14.79
2018-10-21T16:24:13.309Z,14.76
2018-10-21T16:26:42.211Z,14.69
2018-10-21T16:29:11.940Z,14.72
2018-10-21T16:31:42.423Z,14.72
2018-10-21T16:34:12.901Z,14.73
2018-10-21T16:36:42.500Z,14.74
2018-10-21T16:39:13.241Z,14.74
2018-10-21T16:41:42.700Z,14.74
2018-10-21T16:44:13.090Z,14.75
2018-10-21T16:46:42.784Z,14.74
2018-10-21T16:49:12.242Z,14.76
2018-10-21T16:51:42.027Z,14.73
2018-10-21T16:54:11.778Z,14.72
2018-10-21T16:56:41.598Z,14.70
2018-10-21T16:59:11.848Z,14.70
2018-10-21T17:01:40.903Z,14.71
2018-10-21T17:04:11.102Z,14.73
2018-10-21T17:06:40.911Z,14.72
2018-10-21T17:09:12.148Z,14.73
2018-10-21T17:11:42.647Z,14.73
2018-10-21T17:14:12.111Z,14.75
2018-10-21T17:16:41.886Z,14.76
2018-10-21T17:19:11.430Z,14.76
2018-10-21T17:21:42.356Z,14.76
2018-10-21T17:24:12.123Z,14.76
2018-10-21T17:26:41.164Z,14.76
2018-10-21T17:29:10.807Z,14.76
2018-10-21T17:31:40.709Z,14.77
2018-10-21T17:34:10.505Z,14.76
2018-10-21T17:36:39.750Z,14.77
2018-10-21T17:39:12.891Z,14.76
2018-10-21T17:41:42.539Z,14.77
2018-10-21T17:44:12.665Z,14.77
2018-10-21T17:46:42.834Z,14.76
2018-10-21T17:49:22.702Z,14.77
2018-10-21T17:51:51.588Z,14.76
2018-10-21T17:54:20.387Z,14.75
2018-10-21T17:57:52.084Z,14.75
2018-10-21T18:00:22.047Z,14.74
2018-10-21T18:02:51.783Z,14.74
2018-10-21T18:05:20.543Z,14.72
2018-10-21T18:07:49.334Z,14.72
2018-10-21T18:10:18.401Z,14.73
2018-10-21T18:12:47.954Z,14.73
2018-10-21T18:15:16.721Z,14.73
2018-10-21T18:17:45.475Z,14.77
2018-10-21T18:20:14.533Z,14.78
2018-10-21T18:22:44.033Z,14.77
2018-10-21T18:25:12.978Z,14.76
2018-10-21T18:27:42.952Z,14.78
2018-10-21T18:30:13.174Z,14.79
2018-10-21T18:32:43.060Z,14.81
2018-10-21T18:35:14.806Z,14.79
2018-10-21T18:37:43.776Z,14.81
2018-10-21T18:40:13.501Z,14.81
2018-10-21T18:42:43.548Z,14.81
2018-10-21T18:45:14.510Z,14.80
2018-10-21T18:47:43.686Z,14.81
2018-10-21T18:50:13.975Z,14.80
2018-10-21T18:52:43.761Z,14.83
2018-10-21T18:55:13.087Z,14.84
2018-10-21T18:57:42.553Z,14.85
2018-10-21T19:00:17.396Z,14.86
2018-10-21T19:02:47.359Z,14.83
2018-10-21T19:05:16.828Z,14.83
2018-10-21T19:07:45.765Z,14.82
2018-10-21T19:10:15.951Z,14.80
2018-10-21T19:12:59.569Z,14.78
2018-10-21T19:15:15.683Z,14.77
2018-10-21T19:17:44.446Z,14.76
2018-10-21T19:20:14.658Z,14.78
2018-10-21T19:22:43.427Z,14.79
2018-10-21T19:25:13.849Z,14.80
2018-10-21T19:27:43.175Z,14.81
2018-10-21T19:30:13.787Z,14.82
2018-10-21T19:32:43.826Z,14.83
2018-10-21T19:35:14.545Z,14.83
2018-10-21T19:37:43.312Z,14.85
2018-10-21T19:40:14.315Z,14.86
2018-10-21T19:42:44.080Z,14.86
2018-10-21T19:45:13.544Z,14.86
2018-10-21T19:47:42.499Z,14.82
2018-10-21T19:50:14.860Z,14.86
2018-10-21T19:52:44.116Z,14.86
2018-10-21T19:55:13.278Z,14.86
2018-10-21T19:57:43.573Z,14.88
2018-10-21T20:00:15.515Z,14.89
2018-10-21T20:02:45.336Z,14.90
2018-10-21T20:05:14.700Z,14.89
2018-10-21T20:07:43.462Z,14.90
2018-10-21T20:10:14.529Z,14.93
2018-10-21T20:12:44.041Z,14.96
2018-10-21T20:15:13.394Z,14.97
2018-10-21T20:17:43.018Z,14.97
2018-10-21T20:20:12.967Z,14.99
2018-10-21T20:22:43.227Z,14.97
2018-10-21T20:25:12.861Z,14.97
2018-10-21T20:27:42.452Z,14.98
2018-10-21T20:30:13.290Z,15.01
2018-10-21T20:32:44.300Z,15.01
2018-10-21T20:35:13.634Z,15.02
2018-10-21T20:37:42.771Z,15.03
2018-10-21T20:40:13.301Z,15.03
2018-10-21T20:42:43.738Z,15.03
2018-10-21T20:45:13.413Z,15.01
2018-10-21T20:47:42.218Z,15.02
2018-10-21T20:50:16.583Z,15.01
2018-10-21T20:52:46.213Z,15.03
2018-10-21T20:55:15.446Z,15.01
2018-10-21T20:57:44.200Z,15.00
2018-10-21T21:00:14.533Z,15.00
2018-10-21T21:02:43.886Z,14.99
2018-10-21T21:05:13.474Z,15.00
2018-10-21T21:07:42.244Z,15.00
2018-10-21T21:10:11.451Z,15.02
2018-10-21T21:12:41.923Z,15.03
2018-10-21T21:15:11.407Z,15.04
2018-10-21T21:17:40.404Z,15.04
2018-10-21T21:20:10.135Z,15.02
2018-10-21T21:22:39.108Z,15.00
2018-10-21T21:25:08.171Z,14.98
2018-10-21T21:27:36.991Z,14.98
2018-10-21T21:30:06.910Z,14.98
2018-10-21T21:32:36.203Z,14.97
2018-10-21T21:35:07.474Z,14.96
2018-10-21T21:37:36.356Z,14.98
2018-10-21T21:40:07.088Z,15.01
2018-10-21T21:42:36.381Z,15.03
2018-10-21T21:45:05.380Z,15.07
2018-10-21T21:47:34.122Z,15.08
2018-10-21T21:50:02.997Z,15.11
2018-10-21T21:52:32.503Z,15.13
2018-10-21T21:55:01.250Z,15.16
2018-10-21T21:57:30.106Z,15.20
2018-10-21T21:59:59.687Z,15.21
2018-10-21T22:02:28.495Z,15.25
2018-10-21T22:05:28.491Z,15.25
2018-10-21T22:07:57.254Z,15.28
2018-10-21T22:10:26.152Z,15.28
2018-10-21T22:12:55.999Z,15.26
2018-10-21T22:15:24.770Z,15.27
2018-10-21T22:17:53.634Z,15.26
2018-10-21T22:20:22.511Z,15.27
2018-10-21T22:22:51.302Z,15.28
2018-10-21T22:25:20.241Z,15.28
2018-10-21T22:27:49.232Z,15.29
2018-10-21T22:30:18.027Z,15.30
2018-10-21T22:32:47.431Z,15.31
2018-10-21T22:35:16.951Z,15.32
2018-10-21T22:37:45.869Z,15.30
2018-10-21T22:40:15.481Z,15.31
2018-10-21T22:42:44.843Z,15.32
2018-10-21T22:45:13.600Z,15.33
2018-10-21T22:47:42.420Z,15.34
2018-10-21T22:50:12.868Z,15.33
2018-10-21T22:52:43.055Z,15.36
2018-10-21T22:55:12.671Z,15.33
2018-10-21T22:57:42.272Z,15.32
2018-10-21T23:00:12.657Z,15.30
2018-10-21T23:02:43.319Z,15.31
2018-10-21T23:05:12.675Z,15.30
2018-10-21T23:07:42.078Z,15.28
2018-10-21T23:10:11.694Z,15.22
2018-10-21T23:12:43.121Z,15.21
2018-10-21T23:15:12.171Z,15.20
2018-10-21T23:17:42.213Z,15.17
2018-10-21T23:20:11.536Z,15.19
2018-10-21T23:22:41.215Z,15.17
2018-10-21T23:25:10.989Z,15.17
2018-10-21T23:27:40.457Z,15.17
2018-10-21T23:30:11.132Z,15.16
2018-10-21T23:32:41.735Z,15.14
2018-10-21T23:35:12.891Z,15.12
2018-10-21T23:37:42.151Z,15.11
2018-10-21T23:40:12.665Z,15.10
2018-10-21T23:42:43.843Z,15.11
2018-10-21T23:45:12.629Z,15.09
2018-10-21T23:47:42.680Z,15.10
2018-10-21T23:50:12.399Z,15.10
2018-10-21T23:52:42.149Z,15.11
2018-10-21T23:55:11.434Z,15.10
2018-10-21T23:57:40.891Z,15.10
